Conroy, Iowa
Current Conditions -  °F | °C
As of 12:52 AM on Monday 24 Nov 2014 (Local Time) from KCID Reporting Station
Haze Haze  
Wind Chill: 23°   Ceiling: 800
Heat Index: 36°   Visibility: 5mi
Dew Point: 35°   Wind: 28mph
Humidity: 97%   Direction: 310°NW
Pressure: 29.23"   Gusts: 37mph
Location:  41.73°N, 92°W
Report Text: KCID 240652Z AUTO 31024G32KT 5SM BR OVC008 02/02 A2923 RMK AO2 PK WND 32033/0622 RAE0557 CIG 005V010 SLP900 P0000 T00220017
Loading
Personal Weather Stations






























Interactive Weather Map New forecast layout! Learn more

10-Day Weather Forecast

Advertisements
Track Severe Weather on mobile